Not for real navigation | The accuracy of this data is not assured | See disclaimer for more information
ICAO NAME COUNTRY WIND Kt GUST Kt VIS TEMP/DEW BARO
DAUI In Salah North Algeria 0 0 1000 42/3 29.85
DAUI 261600Z 00000KT 1000 SA NSC 42/03 Q1011
DATM Bordj Mokhtar Algeria 10 0 4500 41/0 29.85
DATM 261600Z 03010KT 360V070 4500 SA NSC 41/// Q1011
DAUA Adrar Algeria 6 0 3000 41/0 29.88
DAUA 261600Z 17006KT 3000 SA NSC 41/// Q1012
DAUT Timimoun Algeria 8 0 6000 40/2 29.91
DAUT 261600Z 06008KT 6000 NSC 40/02 Q1013
DRZA Agadez Niger 12 0 9999 40/18 29.88
DRZA 261600Z 18012KT CAVOK 40/18 Q1012

Show more